Time;durP1;ratioP1;P1;durP2;ratioP2;P2;SDS_P1;SDS_P2;PMS_P1;PMS_P2;Temp;Humidity;BMP_temperature;BMP_pressure;BME280_temperature;BME280_humidity;BME280_pressure;Samples;Min_cycle;Max_cycle;Signal;HPM_P1;HPM_P2
2023/11/14 00:02:13;;;;;;;55.47;7.22;;;;;;;13.21;100.00;100396.19;5269789;28;20008;-73
2023/11/14 00:04:43;;;;;;;47.08;6.03;;;;;;;13.19;100.00;100376.66;5266935;28;20031;-73
2023/11/14 00:07:15;;;;;;;33.28;4.82;;;;;;;13.13;100.00;100384.69;5266864;28;20028;-73
2023/11/14 00:09:47;;;;;;;39.35;5.28;;;;;;;13.14;100.00;100371.00;5264724;28;20023;-73
2023/11/14 00:12:20;;;;;;;40.05;6.38;;;;;;;13.09;100.00;100389.63;5269974;28;20055;-73
2023/11/14 00:14:51;;;;;;;43.15;6.13;;;;;;;13.11;100.00;100368.72;5266803;28;20066;-73
2023/11/14 00:17:21;;;;;;;39.17;5.20;;;;;;;13.10;100.00;100366.22;5263548;28;20020;-73
2023/11/14 00:19:51;;;;;;;40.75;6.22;;;;;;;12.99;100.00;100381.03;5271472;28;20713;-73
2023/11/14 00:22:22;;;;;;;48.30;7.13;;;;;;;12.96;100.00;100368.81;5265515;28;20018;-73
2023/11/14 00:24:52;;;;;;;47.33;6.85;;;;;;;12.98;100.00;100370.47;5258115;28;20020;-73
2023/11/14 00:27:23;;;;;;;39.03;6.53;;;;;;;12.94;100.00;100380.78;5259321;28;20140;-73
2023/11/14 00:29:53;;;;;;;37.60;7.45;;;;;;;12.93;100.00;100395.28;5266879;28;20487;-73
2023/11/14 00:32:24;;;;;;;52.30;5.90;;;;;;;12.90;100.00;100379.50;5268882;28;20672;-73
2023/11/14 00:34:54;;;;;;;34.78;7.13;;;;;;;12.98;100.00;100368.59;5266278;28;20421;-74
2023/11/14 00:37:25;;;;;;;44.88;7.03;;;;;;;12.95;100.00;100367.16;5265695;28;20393;-73
2023/11/14 00:39:55;;;;;;;49.63;5.65;;;;;;;12.97;100.00;100372.31;5268377;28;20156;-73
2023/11/14 00:42:26;;;;;;;52.80;5.72;;;;;;;13.07;100.00;100378.22;5266299;28;20073;-73
2023/11/14 00:44:56;;;;;;;34.47;4.80;;;;;;;13.01;100.00;100351.25;5270061;28;20102;-73
2023/11/14 00:47:26;;;;;;;39.78;5.47;;;;;;;13.05;100.00;100347.09;5265661;28;20095;-73
2023/11/14 00:49:57;;;;;;;38.13;5.70;;;;;;;13.06;100.00;100346.94;5264934;28;20016;-73
2023/11/14 00:52:27;;;;;;;51.28;7.18;;;;;;;12.98;100.00;100367.78;5263490;28;20549;-73
2023/11/14 00:54:58;;;;;;;37.15;5.18;;;;;;;12.95;100.00;100353.69;5267887;28;20556;-73
2023/11/14 00:57:28;;;;;;;34.80;6.25;;;;;;;12.91;100.00;100355.09;5265012;28;20481;-73
2023/11/14 00:59:59;;;;;;;42.33;6.93;;;;;;;12.97;100.00;100350.78;5266720;28;20055;-74
2023/11/14 01:02:29;;;;;;;35.88;5.70;;;;;;;12.99;100.00;100355.97;5265909;28;20051;-74
2023/11/14 01:05:00;;;;;;;50.05;6.22;;;;;;;13.02;100.00;100359.13;5264318;28;20465;-73
2023/11/14 01:07:30;;;;;;;44.58;6.85;;;;;;;12.94;100.00;100356.53;5265039;28;20069;-73
2023/11/14 01:10:02;;;;;;;41.00;5.88;;;;;;;12.92;100.00;100355.91;5267047;28;20012;-73
2023/11/14 01:12:33;;;;;;;34.25;5.68;;;;;;;13.06;100.00;100357.72;5258493;28;20082;-73
2023/11/14 01:15:04;;;;;;;44.17;7.53;;;;;;;12.91;100.00;100365.84;5262473;28;20016;-73
2023/11/14 01:17:35;;;;;;;53.72;7.28;;;;;;;13.03;100.00;100376.94;5258993;28;20024;-73
2023/11/14 01:20:06;;;;;;;49.80;6.45;;;;;;;12.96;100.00;100376.88;5265605;28;20024;-73
2023/11/14 01:22:37;;;;;;;35.78;6.53;;;;;;;13.10;100.00;100385.06;5261715;28;20103;-74
2023/11/14 01:25:07;;;;;;;38.17;5.60;;;;;;;13.12;100.00;100380.34;5257526;28;20016;-74
2023/11/14 01:27:40;;;;;;;38.17;5.75;;;;;;;13.09;100.00;100386.09;5260916;28;20568;-73
2023/11/14 01:30:12;;;;;;;38.78;5.55;;;;;;;13.18;100.00;100391.16;5266259;28;20050;-73
2023/11/14 01:32:42;;;;;;;38.03;7.18;;;;;;;13.19;100.00;100402.75;5262793;28;20030;-74
2023/11/14 01:35:13;;;;;;;44.90;6.47;;;;;;;13.09;100.00;100386.91;5262986;28;20028;-73
2023/11/14 01:37:43;;;;;;;37.95;5.80;;;;;;;13.19;100.00;100381.22;5262595;28;20552;-73
2023/11/14 01:40:14;;;;;;;27.27;4.90;;;;;;;13.18;100.00;100401.09;5264853;28;20016;-73
2023/11/14 01:42:45;;;;;;;59.63;6.97;;;;;;;13.17;100.00;100400.25;5265444;28;20063;-73
2023/11/14 01:45:16;;;;;;;44.55;5.20;;;;;;;13.08;100.00;100422.13;5264908;28;20013;-73
2023/11/14 01:47:48;;;;;;;33.50;5.05;;;;;;;13.12;100.00;100412.66;5262975;28;20458;-73
2023/11/14 01:50:19;;;;;;;38.50;5.38;;;;;;;13.15;100.00;100415.78;5259586;28;20027;-73
2023/11/14 01:52:50;;;;;;;32.05;4.90;;;;;;;13.10;100.00;100418.25;5262755;28;20028;-73
2023/11/14 01:55:22;;;;;;;43.92;5.18;;;;;;;13.08;100.00;100432.91;5262722;28;20534;-73
2023/11/14 01:57:53;;;;;;;41.03;5.47;;;;;;;13.01;100.00;100434.72;5263538;28;20031;-73
2023/11/14 02:00:24;;;;;;;41.17;6.15;;;;;;;13.04;100.00;100439.69;5262395;28;20469;-73
2023/11/14 02:02:55;;;;;;;46.20;6.30;;;;;;;13.06;100.00;100454.66;5249840;28;20013;-73
2023/11/14 02:05:27;;;;;;;36.30;6.05;;;;;;;13.06;100.00;100445.75;5267484;28;20370;-73
2023/11/14 02:07:58;;;;;;;46.83;5.40;;;;;;;13.10;100.00;100455.94;5266151;28;20035;-73
2023/11/14 02:10:42;;;;;;;46.15;6.00;;;;;;;13.15;100.00;100449.94;5266432;28;20092;-73
2023/11/14 02:13:13;;;;;;;39.72;5.07;;;;;;;13.21;100.00;100451.91;5268855;28;20103;-73
2023/11/14 02:15:57;;;;;;;43.72;5.85;;;;;;;13.19;100.00;100448.53;5270571;28;21427;-73
2023/11/14 02:18:36;;;;;;;39.72;5.78;;;;;;;13.20;100.00;100459.16;5265861;28;20028;-73
2023/11/14 02:21:07;;;;;;;45.80;6.28;;;;;;;13.13;100.00;100457.41;5266399;28;20031;-73
2023/11/14 02:23:49;;;;;;;36.50;5.68;;;;;;;13.00;100.00;100451.88;5265354;28;20025;-73
2023/11/14 02:26:40;;;;;;;33.08;5.85;;;;;;;13.05;100.00;100457.50;5265290;28;20046;-73
2023/11/14 02:29:20;;;;;;;43.95;5.85;;;;;;;13.02;100.00;100463.31;5265868;28;20043;-73
2023/11/14 02:31:51;;;;;;;41.53;6.35;;;;;;;13.03;100.00;100467.66;5260347;28;20024;-73
2023/11/14 02:34:42;;;;;;;29.52;5.07;;;;;;;13.06;100.00;100470.81;5261811;28;20661;-73
2023/11/14 02:37:12;;;;;;;37.13;5.80;;;;;;;12.95;100.00;100479.38;5265460;28;20414;-73
2023/11/14 02:39:43;;;;;;;31.48;5.18;;;;;;;12.97;100.00;100482.72;5266776;28;20115;-73
2023/11/14 02:42:13;;;;;;;26.05;4.22;;;;;;;12.92;100.00;100496.75;5266382;28;20042;-73
2023/11/14 02:44:44;;;;;;;29.75;5.28;;;;;;;12.88;100.00;100487.38;5266274;28;20027;-73
2023/11/14 02:47:16;;;;;;;36.90;5.50;;;;;;;13.00;100.00;100500.34;5265689;28;20024;-73
2023/11/14 02:50:14;;;;;;;31.10;5.63;;;;;;;12.96;100.00;100492.66;5265489;28;20168;-73
2023/11/14 02:52:44;;;;;;;48.17;5.32;;;;;;;12.89;100.00;100494.44;5262619;28;20032;-73
2023/11/14 02:55:15;;;;;;;33.28;5.80;;;;;;;12.94;100.00;100497.38;5266210;28;20489;-73
2023/11/14 02:57:46;;;;;;;32.20;5.38;;;;;;;12.84;100.00;100491.47;5264462;28;20028;-73
2023/11/14 03:00:16;;;;;;;33.60;5.65;;;;;;;12.99;100.00;100493.28;5265721;28;20016;-73
2023/11/14 03:02:48;;;;;;;36.22;5.28;;;;;;;12.95;100.00;100492.84;5265888;28;20050;-73
2023/11/14 03:05:19;;;;;;;42.10;6.15;;;;;;;12.86;100.00;100499.38;5262272;28;20034;-73
2023/11/14 03:07:49;;;;;;;31.98;5.30;;;;;;;12.86;100.00;100488.59;5263419;28;20024;-73
2023/11/14 03:10:20;;;;;;;26.63;4.18;;;;;;;12.86;100.00;100485.91;5264962;28;20036;-73
2023/11/14 03:12:51;;;;;;;45.67;5.30;;;;;;;12.78;100.00;100491.41;5264480;28;20035;-73
2023/11/14 03:15:21;;;;;;;29.13;4.70;;;;;;;12.76;100.00;100486.22;5266201;28;20473;-73
2023/11/14 03:17:56;;;;;;;42.75;6.32;;;;;;;12.75;100.00;100489.06;5264879;28;20020;-73
2023/11/14 03:20:28;;;;;;;28.85;4.90;;;;;;;12.73;100.00;100499.22;5265489;28;20031;-73
2023/11/14 03:22:58;;;;;;;32.80;4.43;;;;;;;12.90;100.00;100487.19;5265233;28;20107;-73
2023/11/14 03:25:29;;;;;;;49.38;6.05;;;;;;;12.88;100.00;100513.47;5264369;28;20099;-73
2023/11/14 03:28:01;;;;;;;39.97;4.75;;;;;;;12.90;100.00;100508.72;5264461;28;20165;-73
2023/11/14 03:30:32;;;;;;;35.72;5.20;;;;;;;13.00;100.00;100494.94;5266277;28;20103;-73
2023/11/14 03:33:03;;;;;;;34.70;5.38;;;;;;;13.00;100.00;100500.34;5268520;28;20365;-73
2023/11/14 03:35:33;;;;;;;37.92;5.40;;;;;;;12.96;100.00;100506.13;5266030;28;20023;-73
2023/11/14 03:38:04;;;;;;;45.50;8.50;;;;;;;12.95;100.00;100487.44;5266990;28;20019;-74
2023/11/14 03:40:34;;;;;;;38.97;5.63;;;;;;;12.91;100.00;100496.94;5264445;28;20492;-73
2023/11/14 03:43:04;;;;;;;29.80;4.63;;;;;;;13.04;100.00;100509.72;5267592;28;20020;-74
2023/11/14 03:45:35;;;;;;;37.83;5.18;;;;;;;13.09;100.00;100502.72;5267071;28;20023;-73
2023/11/14 03:48:05;;;;;;;37.55;5.07;;;;;;;12.97;100.00;100496.19;5266081;28;20008;-73
2023/11/14 03:50:36;;;;;;;31.88;5.45;;;;;;;13.07;100.00;100514.72;5266766;28;20020;-73
2023/11/14 03:53:06;;;;;;;40.28;4.88;;;;;;;13.07;100.00;100512.88;5268053;28;20039;-73
2023/11/14 03:55:37;;;;;;;41.78;5.60;;;;;;;13.18;100.00;100508.84;5262930;28;20111;-73
2023/11/14 03:58:08;;;;;;;47.30;5.57;;;;;;;13.11;100.00;100503.38;5266801;28;20502;-73
2023/11/14 04:00:38;;;;;;;34.42;4.97;;;;;;;13.06;100.00;100500.44;5265554;28;20034;-73
2023/11/14 04:03:09;;;;;;;32.55;4.82;;;;;;;12.90;100.00;100497.94;5266450;28;20392;-73
2023/11/14 04:05:39;;;;;;;36.75;5.32;;;;;;;12.88;100.00;100491.94;5265818;28;20030;-73
2023/11/14 04:08:10;;;;;;;46.35;5.68;;;;;;;12.84;100.00;100496.03;5262368;28;20012;-73
2023/11/14 04:10:40;;;;;;;53.30;7.35;;;;;;;12.84;100.00;100502.25;5264870;28;20089;-73
2023/11/14 04:13:10;;;;;;;41.42;5.80;;;;;;;12.83;100.00;100497.06;5259331;28;20385;-73
2023/11/14 04:15:41;;;;;;;38.63;6.95;;;;;;;12.74;100.00;100499.00;5265496;28;20080;-73
2023/11/14 04:18:11;;;;;;;34.08;5.25;;;;;;;12.76;100.00;100496.16;5264534;28;20024;-73
2023/11/14 04:20:42;;;;;;;43.58;6.03;;;;;;;12.60;100.00;100495.34;5258114;28;20030;-73
2023/11/14 04:23:12;;;;;;;32.80;5.15;;;;;;;12.61;100.00;100488.94;5263165;28;20012;-73
2023/11/14 04:25:43;;;;;;;31.83;4.80;;;;;;;12.62;100.00;100479.00;5264391;28;20012;-73
2023/11/14 04:28:13;;;;;;;35.15;5.53;;;;;;;12.65;100.00;100474.09;5263447;28;20234;-73
2023/11/14 04:30:44;;;;;;;39.60;5.40;;;;;;;12.61;100.00;100467.41;5265996;28;20012;-73
2023/11/14 04:33:14;;;;;;;34.83;5.68;;;;;;;12.49;100.00;100465.38;5265231;28;20103;-73
2023/11/14 04:35:45;;;;;;;41.83;5.90;;;;;;;12.53;100.00;100478.28;5265997;28;20466;-73
2023/11/14 04:38:15;;;;;;;51.42;5.32;;;;;;;12.54;100.00;100477.25;5264009;28;20618;-73
2023/11/14 04:40:46;;;;;;;45.22;5.40;;;;;;;12.63;100.00;100483.34;5264752;28;20047;-73
2023/11/14 04:43:17;;;;;;;32.38;5.82;;;;;;;12.55;100.00;100489.69;5264642;28;20007;-73
2023/11/14 04:45:47;;;;;;;31.05;4.75;;;;;;;12.59;100.00;100490.97;5264905;28;20531;-73
2023/11/14 04:48:18;;;;;;;39.90;5.53;;;;;;;12.55;100.00;100507.66;5263453;28;20040;-73
2023/11/14 04:50:48;;;;;;;40.17;6.03;;;;;;;12.57;100.00;100513.72;5264662;28;20035;-73
2023/11/14 04:53:19;;;;;;;44.60;5.55;;;;;;;12.61;100.00;100528.47;5261552;28;20019;-73
2023/11/14 04:55:50;;;;;;;39.83;5.80;;;;;;;12.56;100.00;100523.66;5262332;28;20122;-73
2023/11/14 04:58:21;;;;;;;36.92;5.57;;;;;;;12.54;100.00;100520.28;5257918;28;20392;-73
2023/11/14 05:00:51;;;;;;;32.72;5.53;;;;;;;12.45;100.00;100516.06;5264072;28;20020;-73
2023/11/14 05:03:22;;;;;;;30.55;4.65;;;;;;;12.52;100.00;100530.41;5264331;28;20040;-73
2023/11/14 05:05:52;;;;;;;36.17;5.10;;;;;;;12.59;100.00;100536.72;5264779;28;20035;-73
2023/11/14 05:08:23;;;;;;;37.33;5.55;;;;;;;12.50;100.00;100540.53;5263242;28;20020;-73
2023/11/14 05:10:53;;;;;;;51.80;5.88;;;;;;;12.50;100.00;100537.00;5263694;28;20107;-73
2023/11/14 05:13:24;;;;;;;38.17;5.80;;;;;;;12.60;100.00;100526.78;5263992;28;20024;-73
2023/11/14 05:15:54;;;;;;;28.70;5.00;;;;;;;12.57;100.00;100517.25;5262714;28;20032;-73
2023/11/14 05:18:25;;;;;;;32.63;5.25;;;;;;;12.57;100.00;100516.41;5261252;28;20056;-73
2023/11/14 05:20:55;;;;;;;32.67;5.40;;;;;;;12.54;100.00;100528.38;5263176;28;20046;-72
2023/11/14 05:23:26;;;;;;;32.08;4.93;;;;;;;12.53;100.00;100513.25;5264502;28;20016;-73
2023/11/14 05:25:56;;;;;;;29.88;5.10;;;;;;;12.57;100.00;100527.16;5263225;28;20069;-73
2023/11/14 05:28:26;;;;;;;44.20;5.28;;;;;;;12.55;100.00;100519.28;5263574;28;20552;-73
2023/11/14 05:30:57;;;;;;;41.38;5.68;;;;;;;12.68;100.00;100522.13;5263659;28;20111;-73
2023/11/14 05:33:27;;;;;;;41.67;5.35;;;;;;;12.69;100.00;100517.59;5263750;28;20370;-73
2023/11/14 05:35:58;;;;;;;45.60;5.28;;;;;;;12.80;100.00;100522.50;5264112;28;20030;-73
2023/11/14 05:38:29;;;;;;;36.58;6.30;;;;;;;12.65;100.00;100518.97;5267350;28;20045;-73
2023/11/14 05:41:00;;;;;;;30.27;5.88;;;;;;;12.77;100.00;100528.25;5268162;28;20028;-73
2023/11/14 05:43:30;;;;;;;25.52;4.50;;;;;;;12.79;100.00;100541.53;5267799;28;20020;-73
2023/11/14 05:46:01;;;;;;;33.90;4.82;;;;;;;12.86;100.00;100554.06;5267994;28;20035;-73
2023/11/14 05:48:31;;;;;;;41.83;5.05;;;;;;;12.77;100.00;100563.25;5264231;28;20028;-73
2023/11/14 05:51:03;;;;;;;37.17;5.15;;;;;;;12.79;100.00;100544.22;5267489;28;20023;-74
2023/11/14 05:53:34;;;;;;;34.33;5.28;;;;;;;12.80;100.00;100524.34;5262516;28;20031;-74
2023/11/14 05:56:04;;;;;;;53.50;6.60;;;;;;;12.71;100.00;100510.19;5267466;28;20071;-73
2023/11/14 05:58:35;;;;;;;32.55;5.35;;;;;;;12.60;100.00;100524.09;5266586;28;20024;-74
2023/11/14 06:01:06;;;;;;;33.95;5.50;;;;;;;12.61;100.00;100540.06;5267515;28;20127;-74
2023/11/14 06:03:37;;;;;;;42.70;4.95;;;;;;;12.62;100.00;100552.50;5270067;28;20491;-73
2023/11/14 06:06:07;;;;;;;35.15;5.15;;;;;;;12.55;100.00;100548.03;5267153;28;20031;-74
2023/11/14 06:08:38;;;;;;;38.58;5.57;;;;;;;12.60;100.00;100529.47;5266353;28;20027;-74
2023/11/14 06:11:09;;;;;;;40.05;4.82;;;;;;;12.74;100.00;100534.00;5266119;28;20039;-74
2023/11/14 06:13:40;;;;;;;28.40;4.97;;;;;;;12.70;100.00;100530.00;5269765;28;20103;-74
2023/11/14 06:16:11;;;;;;;40.50;6.30;;;;;;;12.60;100.00;100521.41;5264291;28;20238;-75
2023/11/14 06:18:43;;;;;;;45.30;6.35;;;;;;;12.62;100.00;100528.28;5260210;28;20065;-75
2023/11/14 06:21:14;;;;;;;62.42;7.32;;;;;;;12.63;100.00;100516.47;5265872;28;20023;-75
2023/11/14 06:23:44;;;;;;;37.65;5.45;;;;;;;12.57;100.00;100525.31;5261707;28;20020;-75
2023/11/14 06:26:15;;;;;;;47.35;6.80;;;;;;;12.54;100.00;100538.28;5270826;28;20425;-74
2023/11/14 06:28:45;;;;;;;32.67;5.22;;;;;;;12.54;100.00;100551.75;5268522;28;20397;-75
2023/11/14 06:31:16;;;;;;;42.20;5.13;;;;;;;12.61;100.00;100550.00;5264885;28;20157;-75
2023/11/14 06:33:46;;;;;;;48.80;6.30;;;;;;;12.55;100.00;100529.19;5266264;28;20077;-75
2023/11/14 06:36:17;;;;;;;40.90;5.22;;;;;;;12.51;100.00;100534.13;5266103;28;20102;-74
2023/11/14 06:38:47;;;;;;;44.33;5.20;;;;;;;12.62;100.00;100540.91;5262120;28;20122;-74
2023/11/14 06:41:17;;;;;;;31.15;4.90;;;;;;;12.68;100.00;100548.22;5265389;28;20052;-75
2023/11/14 06:43:48;;;;;;;28.45;4.43;;;;;;;12.68;100.00;100562.50;5266482;28;20523;-75
2023/11/14 06:46:18;;;;;;;41.95;6.93;;;;;;;12.73;100.00;100558.44;5259760;28;20050;-75
2023/11/14 06:48:49;;;;;;;36.97;5.88;;;;;;;12.81;100.00;100569.09;5265343;28;20020;-74
2023/11/14 06:51:19;;;;;;;39.67;6.13;;;;;;;12.79;100.00;100576.50;5268059;28;20114;-74
2023/11/14 06:53:50;;;;;;;37.20;4.65;;;;;;;12.83;100.00;100559.81;5264061;28;20558;-74
2023/11/14 06:56:20;;;;;;;31.70;5.70;;;;;;;12.89;100.00;100563.59;5261418;28;20107;-75
2023/11/14 06:58:51;;;;;;;34.20;4.10;;;;;;;12.91;100.00;100543.56;5265302;28;20156;-73
2023/11/14 07:01:21;;;;;;;28.70;5.35;;;;;;;12.85;100.00;100538.94;5267367;28;20027;-74
2023/11/14 07:03:52;;;;;;;29.92;5.18;;;;;;;12.97;100.00;100539.25;5265820;28;20024;-75
2023/11/14 07:06:22;;;;;;;26.17;4.75;;;;;;;12.99;100.00;100523.75;5265592;28;20024;-74
2023/11/14 07:08:53;;;;;;;35.38;6.05;;;;;;;12.98;100.00;100523.94;5264893;28;20077;-74
2023/11/14 07:11:24;;;;;;;24.45;4.43;;;;;;;12.99;100.00;100544.44;5261947;28;20012;-74
2023/11/14 07:13:54;;;;;;;34.17;5.28;;;;;;;12.87;100.00;100541.41;5265335;28;20024;-74
2023/11/14 07:16:27;;;;;;;37.03;6.20;;;;;;;12.88;100.00;100537.69;5267693;28;20047;-74
2023/11/14 07:18:57;;;;;;;35.47;6.05;;;;;;;12.89;100.00;100542.06;5264432;28;20024;-74
2023/11/14 07:21:32;;;;;;;30.55;4.63;;;;;;;12.93;100.00;100546.88;5265331;28;20031;-74
2023/11/14 07:24:03;;;;;;;38.38;4.93;;;;;;;12.91;100.00;100540.84;5264538;28;20266;-75
2023/11/14 07:26:34;;;;;;;40.63;6.65;;;;;;;12.90;100.00;100522.19;5264933;28;20024;-74
2023/11/14 07:29:05;;;;;;;35.83;4.85;;;;;;;13.00;100.00;100540.72;5261822;28;20028;-74
2023/11/14 07:31:35;;;;;;;37.70;5.60;;;;;;;13.02;100.00;100542.22;5265354;28;20028;-74
2023/11/14 07:34:05;;;;;;;28.33;5.35;;;;;;;13.01;100.00;100543.25;5264597;28;20028;-75
2023/11/14 07:36:36;;;;;;;36.20;5.30;;;;;;;13.04;100.00;100544.72;5265306;28;20020;-74
2023/11/14 07:39:07;;;;;;;27.38;5.03;;;;;;;12.99;100.00;100541.75;5251640;28;20032;-74
2023/11/14 07:41:37;;;;;;;36.00;5.18;;;;;;;12.98;100.00;100546.31;5264598;28;20061;-74
2023/11/14 07:44:09;;;;;;;37.42;5.78;;;;;;;13.12;100.00;100550.84;5263354;28;20072;-74
2023/11/14 07:46:42;;;;;;;34.83;6.43;;;;;;;13.11;100.00;100559.94;5266230;28;20393;-75
2023/11/14 07:49:13;;;;;;;35.97;5.90;;;;;;;13.22;100.00;100561.34;5270492;28;20141;-74
2023/11/14 07:51:43;;;;;;;35.95;6.20;;;;;;;13.18;100.00;100562.69;5267277;28;20107;-74
2023/11/14 07:54:14;;;;;;;33.10;5.25;;;;;;;13.21;100.00;100571.28;5266616;28;20024;-74
2023/11/14 07:56:44;;;;;;;29.75;5.15;;;;;;;13.28;100.00;100562.44;5260822;28;20012;-75
2023/11/14 07:59:14;;;;;;;31.15;4.78;;;;;;;13.25;100.00;100565.50;5259797;28;20050;-74
2023/11/14 08:01:46;;;;;;;27.90;4.85;;;;;;;13.27;100.00;100558.06;5267969;28;20032;-74
2023/11/14 08:04:17;;;;;;;29.73;4.72;;;;;;;13.27;100.00;100564.28;5266200;28;20024;-74
2023/11/14 08:06:48;;;;;;;27.88;4.22;;;;;;;13.24;100.00;100547.66;5264875;28;20028;-75
2023/11/14 08:09:18;;;;;;;40.88;4.93;;;;;;;13.31;100.00;100548.59;5266110;28;20477;-75
2023/11/14 08:11:48;;;;;;;38.50;4.82;;;;;;;13.29;100.00;100548.75;5266817;28;20027;-74
2023/11/14 08:14:19;;;;;;;25.85;5.28;;;;;;;13.29;100.00;100545.22;5268388;28;20370;-74
2023/11/14 08:16:50;;;;;;;39.55;5.53;;;;;;;13.40;100.00;100550.09;5267285;28;20028;-74
2023/11/14 08:19:20;;;;;;;29.85;4.18;;;;;;;13.42;100.00;100537.31;5264386;28;20058;-74
2023/11/14 08:21:50;;;;;;;32.97;5.95;;;;;;;13.42;100.00;100531.91;5264466;28;20127;-75
2023/11/14 08:24:23;;;;;;;22.67;4.43;;;;;;;13.49;100.00;100527.41;5267118;28;20012;-74
2023/11/14 08:26:54;;;;;;;24.27;4.90;;;;;;;13.43;100.00;100531.72;5265324;28;20054;-75
2023/11/14 08:29:24;;;;;;;26.50;4.53;;;;;;;13.41;100.00;100541.84;5268642;28;20051;-75
2023/11/14 08:31:55;;;;;;;33.40;5.45;;;;;;;13.54;100.00;100541.13;5266238;28;20027;-75
2023/11/14 08:34:25;;;;;;;23.13;4.43;;;;;;;13.56;100.00;100539.09;5262523;28;20028;-74
2023/11/14 08:36:56;;;;;;;38.45;5.68;;;;;;;13.50;100.00;100542.53;5266006;28;20099;-74
2023/11/14 08:39:26;;;;;;;26.08;4.30;;;;;;;13.58;100.00;100546.97;5267250;28;20027;-75
2023/11/14 08:41:57;;;;;;;31.02;5.40;;;;;;;13.60;100.00;100543.03;5267828;28;20374;-75
2023/11/14 08:44:28;;;;;;;33.97;6.15;;;;;;;13.57;100.00;100553.41;5266854;28;20024;-74
2023/11/14 08:46:58;;;;;;;25.52;4.60;;;;;;;13.59;100.00;100548.66;5265835;28;20115;-75
2023/11/14 08:49:29;;;;;;;22.63;4.28;;;;;;;13.56;100.00;100539.09;5266319;28;20047;-75
2023/11/14 08:51:59;;;;;;;47.03;6.22;;;;;;;13.54;100.00;100527.66;5265834;28;20020;-74
2023/11/14 08:54:31;;;;;;;33.67;6.18;;;;;;;13.50;100.00;100534.44;5264820;28;20027;-74
2023/11/14 08:57:02;;;;;;;34.90;5.88;;;;;;;13.59;100.00;100529.78;5261309;28;20039;-74
2023/11/14 08:59:33;;;;;;;28.88;4.80;;;;;;;13.69;100.00;100541.06;5264685;28;20571;-75
2023/11/14 09:02:03;;;;;;;24.77;4.53;;;;;;;13.69;100.00;100546.47;5265801;28;20020;-75
2023/11/14 09:04:34;;;;;;;28.05;5.38;;;;;;;13.75;100.00;100548.38;5267467;28;20435;-75
2023/11/14 09:07:04;;;;;;;36.45;5.60;;;;;;;13.65;100.00;100545.16;5267231;28;20046;-75
2023/11/14 09:09:34;;;;;;;23.10;4.95;;;;;;;13.67;100.00;100543.97;5261723;28;20438;-75
2023/11/14 09:12:06;;;;;;;29.90;4.68;;;;;;;13.71;100.00;100557.91;5264926;28;20508;-74
2023/11/14 09:14:37;;;;;;;39.00;5.03;;;;;;;13.67;100.00;100562.84;5260619;28;20028;-74
2023/11/14 09:17:08;;;;;;;31.60;4.60;;;;;;;13.66;100.00;100546.88;5260949;28;20070;-74
2023/11/14 09:19:39;;;;;;;39.53;5.93;;;;;;;13.59;100.00;100548.66;5264798;28;20566;-74
2023/11/14 09:22:10;;;;;;;24.38;5.28;;;;;;;13.46;100.00;100543.97;5259992;28;20029;-74
2023/11/14 09:24:40;;;;;;;34.38;5.50;;;;;;;13.50;100.00;100565.97;5264124;28;20024;-75
2023/11/14 09:27:12;;;;;;;29.25;4.22;;;;;;;13.45;100.00;100566.53;5265468;28;20155;-74
2023/11/14 09:29:42;;;;;;;31.02;5.15;;;;;;;13.57;100.00;100562.31;5256282;28;20020;-74
2023/11/14 09:32:13;;;;;;;36.78;6.00;;;;;;;13.62;100.00;100572.53;5263289;28;20020;-75
2023/11/14 09:34:43;;;;;;;21.05;4.93;;;;;;;13.47;100.00;100573.41;5266635;28;20103;-75
2023/11/14 09:37:14;;;;;;;32.72;5.18;;;;;;;13.52;100.00;100578.22;5265445;28;20027;-75
2023/11/14 09:39:44;;;;;;;27.10;4.72;;;;;;;13.44;100.00;100571.09;5264896;28;20035;-75
2023/11/14 09:42:15;;;;;;;28.30;4.53;;;;;;;13.39;100.00;100591.56;5264288;28;20115;-75
2023/11/14 09:44:46;;;;;;;34.13;4.45;;;;;;;13.40;100.00;100587.84;5263801;28;20527;-75
2023/11/14 09:47:17;;;;;;;26.02;5.25;;;;;;;13.39;100.00;100592.38;5265124;28;20044;-74
2023/11/14 09:49:49;;;;;;;23.73;4.00;;;;;;;13.29;100.00;100570.31;5264654;28;20020;-75
2023/11/14 09:52:20;;;;;;;19.25;3.95;;;;;;;13.23;100.00;100572.94;5263394;28;20032;-75
2023/11/14 09:54:51;;;;;;;21.80;3.78;;;;;;;13.29;100.00;100566.78;5263215;28;20024;-76
2023/11/14 09:57:23;;;;;;;19.92;3.30;;;;;;;13.29;100.00;100567.63;5262282;28;20039;-76
2023/11/14 09:59:54;;;;;;;19.27;2.67;;;;;;;13.32;100.00;100558.34;5263246;28;20024;-75
2023/11/14 10:02:24;;;;;;;19.25;3.10;;;;;;;13.36;100.00;100562.31;5264280;28;20461;-75
2023/11/14 10:04:56;;;;;;;13.57;2.95;;;;;;;13.21;100.00;100552.44;5264293;28;20039;-75
2023/11/14 10:07:27;;;;;;;13.45;3.15;;;;;;;13.32;100.00;100569.13;5264797;28;20472;-75
2023/11/14 10:10:00;;;;;;;15.13;2.83;;;;;;;13.31;100.00;100552.13;5260146;28;20032;-75
2023/11/14 10:12:37;;;;;;;15.65;2.33;;;;;;;13.21;100.00;100551.56;5263006;28;20103;-75
2023/11/14 10:15:08;;;;;;;19.63;2.40;;;;;;;13.19;100.00;100562.50;5263259;28;20085;-75
2023/11/14 10:17:46;;;;;;;7.63;2.05;;;;;;;13.18;100.00;100544.69;5264432;28;20024;-76
2023/11/14 10:20:18;;;;;;;12.15;2.20;;;;;;;13.24;100.00;100561.97;5264194;28;20427;-75
2023/11/14 10:22:49;;;;;;;13.60;1.67;;;;;;;13.29;100.00;100564.91;5266579;28;20024;-75
2023/11/14 10:25:31;;;;;;;6.68;1.83;;;;;;;13.37;100.00;100564.81;5261855;28;20035;-75
2023/11/14 10:28:04;;;;;;;6.22;1.40;;;;;;;13.37;100.00;100559.44;5265915;28;20027;-74
2023/11/14 10:30:42;;;;;;;5.40;1.20;;;;;;;13.26;100.00;100568.03;5266504;28;20098;-75
2023/11/14 10:33:13;;;;;;;6.22;1.67;;;;;;;13.34;100.00;100561.66;5267167;28;20032;-75
2023/11/14 10:35:45;;;;;;;8.88;1.45;;;;;;;13.29;100.00;100550.63;5266551;28;20020;-75
2023/11/14 10:38:20;;;;;;;10.68;2.10;;;;;;;13.19;100.00;100535.56;5265571;28;20500;-76
2023/11/14 10:40:52;;;;;;;7.78;2.00;;;;;;;13.26;100.00;100529.47;5262338;28;20036;-75
2023/11/14 10:43:29;;;;;;;9.95;1.85;;;;;;;13.15;100.00;100523.53;5265028;28;20027;-75
2023/11/14 10:46:06;;;;;;;7.70;2.10;;;;;;;13.17;100.00;100516.09;5267649;28;20679;-75
2023/11/14 10:48:36;;;;;;;8.10;1.80;;;;;;;13.02;100.00;100514.47;5264262;28;20036;-75
2023/11/14 10:51:08;;;;;;;7.82;1.73;;;;;;;13.04;100.00;100520.47;5267003;28;20169;-75
2023/11/14 10:53:39;;;;;;;9.68;1.67;;;;;;;13.12;100.00;100518.50;5266312;28;20029;-75
2023/11/14 10:56:12;;;;;;;12.05;2.45;;;;;;;13.15;100.00;100511.91;5266613;28;20024;-76
2023/11/14 10:58:43;;;;;;;10.23;2.33;;;;;;;13.00;100.00;100509.25;5266194;28;20016;-76
2023/11/14 11:01:13;;;;;;;7.95;2.75;;;;;;;12.99;100.00;100504.91;5265517;28;20027;-76
2023/11/14 11:03:44;;;;;;;20.25;2.67;;;;;;;13.14;100.00;100511.06;5265372;28;20047;-76
2023/11/14 11:06:15;;;;;;;11.90;3.10;;;;;;;13.15;100.00;100510.06;5265888;28;20028;-76
2023/11/14 11:08:45;;;;;;;10.85;2.17;;;;;;;13.09;100.00;100507.28;5263998;28;20095;-76
2023/11/14 11:11:16;;;;;;;10.30;2.20;;;;;;;13.07;100.00;100512.88;5264647;28;20093;-76
2023/11/14 11:13:46;;;;;;;15.18;2.47;;;;;;;13.17;100.00;100508.00;5261708;28;20354;-75
2023/11/14 11:16:39;;;;;;;9.80;2.10;;;;;;;13.16;100.00;100497.44;5265475;28;20474;-75
2023/11/14 11:19:17;;;;;;;12.00;2.28;;;;;;;13.18;100.00;100493.50;5265493;28;20106;-75
2023/11/14 11:22:06;;;;;;;15.93;2.22;;;;;;;12.94;100.00;100483.91;5261299;28;20049;-76
2023/11/14 11:24:37;;;;;;;24.17;3.92;;;;;;;13.02;100.00;100490.22;5265002;28;20661;-76
2023/11/14 11:27:17;;;;;;;21.05;3.15;;;;;;;12.88;100.00;100476.63;5264889;28;20030;-76
2023/11/14 11:30:00;;;;;;;13.63;3.22;;;;;;;12.84;100.00;100475.31;5261026;28;20036;-76